首页
METAR-TAF:

METAR-TAF

机场 :

Frontone, 意大利

纬度: 43-31N, 经度: 012-44E, 海拔: 570米

当前天气观测

该预报发布于25分钟前的14:55 UTC
风速3节,风向西南
温度 19°C
湿度 64%
气压 1001 hPa
能见度10公里或以上
散云层高于2800英尺

METAR: LIVF 051455Z 22003KT 9999 SCT028 19/12 Q1001 RMK BKN MON S W CLD SCT NC VAL NIL VIS MIN 9999

时间: 17:20 (15:20 UTC)


TAF: 丢失

超过4000个机场的气象观测和天气预报(METAR&TAF报告)。

可查询的气象台以黄色和红色小点在地图上表示。

将鼠标移到小点上方,可查看气象台名称。

然后点击查看天气观测和预报。

如需切换地图:点击带黑十字的绿色按钮放大地图;点击带横线的绿色按钮缩小地图;或者点击绿色箭头查看邻近地区的地图。


METAR-TAF: